createdAt,value
2022-09-11T00:03:38.702Z,95761.31
2022-09-11T00:08:41.441Z,95755.13
2022-09-11T00:13:44.253Z,95745.69
2022-09-11T00:18:47.180Z,95749.50
2022-09-11T00:23:50.375Z,95744.56
2022-09-11T00:28:53.169Z,95734.91
2022-09-11T00:33:56.109Z,95747.88
2022-09-11T00:38:59.047Z,95740.91
2022-09-11T00:44:02.382Z,95736.53
2022-09-11T00:49:05.098Z,95731.63
2022-09-11T00:54:07.961Z,95733.22
2022-09-11T00:59:11.126Z,95738.03
2022-09-11T01:04:13.848Z,95740.22
2022-09-11T01:09:16.519Z,95739.91
2022-09-11T01:14:19.225Z,95730.47
2022-09-11T01:19:21.937Z,95729.63
2022-09-11T01:24:24.592Z,95727.25
2022-09-11T01:29:27.334Z,95724.50
2022-09-11T01:34:30.035Z,95729.88
2022-09-11T01:39:32.780Z,95735.03
2022-09-11T01:44:35.446Z,95730.22
2022-09-11T01:49:38.239Z,95726.72
2022-09-11T01:54:41.992Z,95728.84
2022-09-11T01:59:44.689Z,95720.94
2022-09-11T02:04:47.355Z,95719.03
2022-09-11T02:09:50.421Z,95730.19
2022-09-11T02:14:53.349Z,95727.25
2022-09-11T02:19:56.700Z,95720.03
2022-09-11T02:24:59.421Z,95723.22
2022-09-11T02:30:02.382Z,95722.44
2022-09-11T02:35:05.083Z,95728.16
2022-09-11T02:40:09.282Z,95719.03
2022-09-11T02:45:12.212Z,95712.84
2022-09-11T02:50:15.454Z,95715.03
2022-09-11T02:55:19.173Z,95711.75
2022-09-11T03:00:21.912Z,95712.50
2022-09-11T03:05:26.137Z,95710.94
2022-09-11T03:10:29.005Z,95713.34
2022-09-11T03:15:32.052Z,95707.84
2022-09-11T03:20:34.947Z,95713.00
2022-09-11T03:25:37.818Z,95713.56
2022-09-11T03:30:41.529Z,95711.97
2022-09-11T03:35:44.776Z,95705.53
2022-09-11T03:40:47.591Z,95704.16
2022-09-11T03:45:51.150Z,95709.78
2022-09-11T03:50:54.679Z,95705.19
2022-09-11T03:55:58.038Z,95700.59
2022-09-11T04:01:00.987Z,95699.75
2022-09-11T04:06:06.797Z,95700.56
2022-09-11T04:11:10.074Z,95706.25
2022-09-11T04:16:12.881Z,95694.06
2022-09-11T04:21:15.569Z,95686.53
2022-09-11T04:26:19.162Z,95691.16
2022-09-11T04:31:21.931Z,95697.66
2022-09-11T04:36:27.016Z,95695.22
2022-09-11T04:41:29.808Z,95707.63
2022-09-11T04:46:32.544Z,95700.56
2022-09-11T04:51:35.209Z,95698.75
2022-09-11T04:56:38.870Z,95706.00
2022-09-11T05:01:41.557Z,95706.25
2022-09-11T05:06:48.292Z,95705.38
2022-09-11T05:11:51.770Z,95715.28
2022-09-11T05:16:55.098Z,95716.84
2022-09-11T05:21:57.833Z,95707.91
2022-09-11T05:27:01.392Z,95711.66
2022-09-11T05:32:05.998Z,95713.25
2022-09-11T05:37:08.794Z,95711.06
2022-09-11T05:42:11.905Z,95715.91
2022-09-11T05:47:17.355Z,95724.38
2022-09-11T05:52:20.095Z,95746.41
2022-09-11T05:57:22.758Z,95734.47
2022-09-11T06:02:25.479Z,95736.75
2022-09-11T06:07:28.143Z,95734.78
2022-09-11T06:12:31.031Z,95741.72
2022-09-11T06:17:34.202Z,95749.13
2022-09-11T06:22:37.679Z,95756.06
2022-09-11T06:27:40.864Z,95754.41
2022-09-11T06:32:43.562Z,95744.72
2022-09-11T06:37:46.252Z,95750.78
2022-09-11T06:42:49.282Z,95745.00
2022-09-11T06:47:52.177Z,95760.41
2022-09-11T06:52:54.942Z,95760.03
2022-09-11T06:57:57.730Z,95765.44
2022-09-11T07:03:02.276Z,95768.16
2022-09-11T07:08:05.529Z,95768.41
2022-09-11T07:13:08.306Z,95765.63
2022-09-11T07:18:12.318Z,95770.16
2022-09-11T07:23:15.111Z,95778.41
2022-09-11T07:28:17.881Z,95781.47
2022-09-11T07:33:20.677Z,95781.25
2022-09-11T07:38:23.526Z,95789.75
2022-09-11T07:43:26.739Z,95789.88
2022-09-11T07:48:29.497Z,95793.50
2022-09-11T07:53:32.588Z,95795.75
2022-09-11T07:58:36.038Z,95797.38
2022-09-11T08:03:38.821Z,95800.91
2022-09-11T08:08:42.054Z,95803.09
2022-09-11T08:13:44.903Z,95804.66
2022-09-11T08:18:48.152Z,95804.09
2022-09-11T08:23:51.010Z,95825.41
2022-09-11T08:28:53.820Z,95829.84
2022-09-11T08:33:56.575Z,95839.31
2022-09-11T08:39:00.260Z,95842.75
2022-09-11T08:44:03.015Z,95847.75
2022-09-11T08:49:05.920Z,95842.16
2022-09-11T08:54:08.810Z,95849.88
2022-09-11T08:59:11.749Z,95853.16
2022-09-11T09:04:14.648Z,95848.44
2022-09-11T09:09:18.562Z,95858.56
2022-09-11T09:14:21.557Z,95861.72
2022-09-11T09:19:24.987Z,95877.72
2022-09-11T09:24:27.741Z,95875.06
2022-09-11T09:29:30.573Z,95881.31
2022-09-11T09:34:34.876Z,95878.22
2022-09-11T09:39:38.173Z,95884.34
2022-09-11T09:44:41.293Z,95893.09
2022-09-11T09:49:44.550Z,95889.69
2022-09-11T09:54:47.574Z,95884.16
2022-09-11T09:59:50.436Z,95893.78
2022-09-11T10:04:54.424Z,95897.06
2022-09-11T10:09:59.018Z,95894.94
2022-09-11T10:15:01.883Z,95897.06
2022-09-11T10:20:05.470Z,95892.75
2022-09-11T10:25:08.309Z,95914.53
2022-09-11T10:30:11.113Z,95911.31
2022-09-11T10:35:14.243Z,95901.72
2022-09-11T10:40:18.142Z,95904.47
2022-09-11T10:45:21.916Z,95893.00
2022-09-11T10:50:29.277Z,95901.53
2022-09-11T10:55:32.225Z,95899.38
2022-09-11T11:00:35.867Z,95894.47
2022-09-11T11:05:38.666Z,95897.78
2022-09-11T11:10:42.508Z,95897.84
2022-09-11T11:15:45.359Z,95890.31
2022-09-11T11:20:48.458Z,95897.78
2022-09-11T11:25:51.162Z,95903.25
2022-09-11T11:30:55.277Z,95903.41
2022-09-11T11:35:58.054Z,95915.06
2022-09-11T11:41:03.239Z,95921.22
2022-09-11T11:46:06.105Z,95930.63
2022-09-11T11:51:08.915Z,95926.97
2022-09-11T11:56:14.264Z,95931.59
2022-09-11T12:01:16.993Z,95938.41
2022-09-11T12:06:20.623Z,95932.34
2022-09-11T12:11:24.837Z,95932.41
2022-09-11T12:16:29.254Z,95929.28
2022-09-11T12:21:32.530Z,95934.16
2022-09-11T12:26:35.249Z,95923.88
2022-09-11T12:31:37.973Z,95926.16
2022-09-11T12:36:40.866Z,95926.28
2022-09-11T12:41:43.578Z,95924.69
2022-09-11T12:46:47.979Z,95922.78
2022-09-11T12:51:51.095Z,95922.81
2022-09-11T12:57:01.714Z,95922.81
2022-09-11T13:02:08.981Z,95925.66
2022-09-11T13:07:11.992Z,95936.94
2022-09-11T13:12:14.726Z,95935.56
2022-09-11T13:17:18.439Z,95930.09
2022-09-11T13:22:21.464Z,95919.31
2022-09-11T13:27:26.721Z,95918.63
2022-09-11T13:32:29.898Z,95922.84
2022-09-11T13:37:32.973Z,95918.59
2022-09-11T13:42:36.297Z,95910.41
2022-09-11T13:47:39.422Z,95910.94
2022-09-11T13:52:46.234Z,95912.25
2022-09-11T13:57:49.293Z,95908.44
2022-09-11T14:02:53.141Z,95905.94
2022-09-11T14:07:56.747Z,95907.38
2022-09-11T14:13:00.450Z,95902.53
2022-09-11T14:18:03.452Z,95897.47
2022-09-11T14:23:06.156Z,95910.56
2022-09-11T14:28:09.454Z,95902.91
2022-09-11T14:33:12.290Z,95892.50
2022-09-11T14:38:15.542Z,95890.28
2022-09-11T14:43:21.121Z,95888.00
2022-09-11T14:48:24.101Z,95892.94
2022-09-11T14:53:26.905Z,95889.69
2022-09-11T14:58:29.648Z,95898.59
2022-09-11T15:03:32.447Z,95896.16
2022-09-11T15:08:35.610Z,95894.13
2022-09-11T15:13:48.184Z,95885.94
2022-09-11T15:19:01.096Z,95901.59
2022-09-11T15:24:05.369Z,95894.44
2022-09-11T15:29:10.227Z,95893.78
2022-09-11T15:34:12.940Z,95891.16
2022-09-11T15:39:15.877Z,95876.47
2022-09-11T15:44:19.976Z,95885.47
2022-09-11T15:49:22.950Z,95888.44
2022-09-11T15:54:25.818Z,95888.03
2022-09-11T15:59:28.688Z,95888.34
2022-09-11T16:04:34.887Z,95892.63
2022-09-11T16:09:38.686Z,95885.94
2022-09-11T16:14:41.525Z,95879.44
2022-09-11T16:19:44.980Z,95881.44
2022-09-11T16:24:47.805Z,95879.22
2022-09-11T16:30:20.601Z,95888.50
2022-09-11T16:35:14.229Z,95880.44
2022-09-11T16:40:17.148Z,95871.28
2022-09-11T16:45:19.892Z,95876.53
2022-09-11T16:50:24.333Z,95885.91
2022-09-11T16:55:27.121Z,95886.47
2022-09-11T17:00:29.916Z,95892.31
2022-09-11T17:05:32.658Z,95891.31
2022-09-11T17:10:35.436Z,95881.56
2022-09-11T17:15:39.153Z,95873.81
2022-09-11T17:20:42.499Z,95869.03
2022-09-11T17:25:45.678Z,95865.91
2022-09-11T17:30:48.373Z,95876.22
2022-09-11T17:35:51.646Z,95877.81
2022-09-11T17:40:57.035Z,95887.44
2022-09-11T17:46:00.206Z,95887.44
2022-09-11T17:51:03.399Z,95889.13
2022-09-11T17:56:06.174Z,95892.44
2022-09-11T18:01:10.197Z,95899.13
2022-09-11T18:06:14.614Z,95899.13
2022-09-11T18:11:17.366Z,95905.66
2022-09-11T18:16:20.162Z,95905.97
2022-09-11T18:21:23.047Z,95907.41
2022-09-11T18:26:26.208Z,95920.69
2022-09-11T18:31:36.891Z,95919.66
2022-09-11T18:36:39.884Z,95914.56
2022-09-11T18:41:44.345Z,95920.25
2022-09-11T18:46:47.770Z,95914.22
2022-09-11T18:51:50.602Z,95912.72
2022-09-11T18:56:53.484Z,95914.47
2022-09-11T19:01:56.252Z,95927.06
2022-09-11T19:07:00.291Z,95923.84
2022-09-11T19:12:03.912Z,95924.31
2022-09-11T19:17:06.642Z,95932.34
2022-09-11T19:22:09.366Z,95923.31
2022-09-11T19:27:12.746Z,95928.78
2022-09-11T19:32:16.329Z,95935.88
2022-09-11T19:37:20.156Z,95936.78
2022-09-11T19:42:24.030Z,95947.34
2022-09-11T19:47:27.201Z,95946.91
2022-09-11T19:52:33.061Z,95944.88
2022-09-11T19:57:36.573Z,95940.84
2022-09-11T20:02:39.382Z,95946.56
2022-09-11T20:07:42.207Z,95944.47
2022-09-11T20:12:45.033Z,95944.19
2022-09-11T20:17:48.797Z,95936.41
2022-09-11T20:22:51.546Z,95935.94
2022-09-11T20:28:00.401Z,95937.63
2022-09-11T20:33:06.088Z,95938.75
2022-09-11T20:38:08.782Z,95942.84
2022-09-11T20:43:11.991Z,95935.59
2022-09-11T20:48:14.722Z,95935.38
2022-09-11T20:53:22.840Z,95934.63
2022-09-11T20:58:25.609Z,95941.97
2022-09-11T21:03:28.394Z,95939.28
2022-09-11T21:08:31.091Z,95941.97
2022-09-11T21:13:33.795Z,95933.91
2022-09-11T21:18:36.514Z,95938.53
2022-09-11T21:23:39.186Z,95934.75
2022-09-11T21:28:41.857Z,95943.41
2022-09-11T21:33:44.814Z,95946.38
2022-09-11T21:38:47.544Z,95941.28
2022-09-11T21:43:50.415Z,95938.88
2022-09-11T21:48:53.172Z,95941.59
2022-09-11T21:53:57.710Z,95933.00
2022-09-11T21:59:00.409Z,95933.28
2022-09-11T22:04:03.085Z,95937.06
2022-09-11T22:09:05.792Z,95936.78
2022-09-11T22:14:20.243Z,95937.09
2022-09-11T22:19:22.915Z,95934.38
2022-09-11T22:24:25.593Z,95924.13
2022-09-11T22:29:28.447Z,95929.81
2022-09-11T22:34:31.268Z,95923.38
2022-09-11T22:39:34.536Z,95923.13
2022-09-11T22:44:37.378Z,95922.59
2022-09-11T22:49:40.109Z,95923.69
2022-09-11T22:54:44.129Z,95932.31
2022-09-11T22:59:47.265Z,95915.91
2022-09-11T23:05:03.822Z,95924.28
2022-09-11T23:10:06.583Z,95919.16
2022-09-11T23:15:09.345Z,95924.81
2022-09-11T23:20:12.084Z,95917.56
2022-09-11T23:25:15.161Z,95918.41
2022-09-11T23:30:17.880Z,95918.41
2022-09-11T23:35:20.560Z,95909.50
2022-09-11T23:40:23.299Z,95903.31
2022-09-11T23:45:26.041Z,95894.19
2022-09-11T23:50:28.817Z,95899.56
2022-09-11T23:55:31.909Z,95895.28
